ウィニペグ の空港の天気 - METARとTAF

ウィニペグ国際空港 ( CYWG / YWG ) - カナダ マニトバ州ウィニペグ
飛行場実況気象(Metar)
観測時間06/24 04:00 CDT (06/24 09:00 UTC)
風向・風速西 2m/s
視程10km以上
天気現象
少しの雲 雲底高度 7620m
気温13℃
湿度94%
気圧1003.1hPa
METARCYWG 240900Z 26004KT 15SM FEW250 13/12 A2961 RMK CI1 SLP031 DENSITY ALT 1100FT
過去の天気等 Google飛行場航空写真 Wunderground天気予報

過去48時間のMETAR

飛行場予報(TAF)
発表時間: 6/24 00:38 CDT (6/24 05:38 UTC)
予報対象時間: 24日1時 CDT ~ 25日1時 CDT
風向・風速西 3m/s
視程10km以上
全天の4割程度の雲 雲底高度 1830m
24日10時 CDT ~ 24日12時 CDT に徐々に
風向・風速西北西 5m/s
24日13時 CDT から
風向・風速西北西 5m/s 瞬間風速 10m/s
視程10km以上
全天の4割程度の雲 雲底高度 1830m
24日17時 CDT から
風向・風速北西 6m/s 瞬間風速 11m/s
視程10km以上
天気現象周辺でしゅう雨
全天の8割程度の雲 雲底高度 1830m
24日17時 CDT から 確率 30% で
風向・風速不定 8m/s 瞬間風速 13m/s
視程6440m
天気現象雷雨 もや
全天の4割程度の雲 雲底高度 910m
全天の8割程度の積乱雲 雲底高度 1830m
24日23時 CDT から
風向・風速西 3m/s
視程10km以上
全天の8割程度の雲 雲底高度 2440m
TAF CYWG 240538Z 2406/2506 26005KT P6SM SCT060
BECMG 2415/2417 29010KT
FM241800 29010G20KT P6SM SCT060
FM242200 31012G22KT P6SM VCSH BKN060
PROB30 2422/2502 VRB15G25KT 4SM TSRA BR SCT030 BKN060CB
FM250400 28005KT P6SM BKN080 RMK NXT FCST BY 241200Z